createdAt,value
2022-12-24T00:01:07.192Z,1.20
2022-12-24T00:03:36.716Z,1.30
2022-12-24T00:06:17.252Z,1.17
2022-12-24T00:08:44.479Z,1.30
2022-12-24T00:11:11.673Z,1.70
2022-12-24T00:13:39.302Z,1.50
2022-12-24T00:16:06.825Z,1.50
2022-12-24T00:18:33.754Z,1.23
2022-12-24T00:21:01.911Z,1.25
2022-12-24T00:23:28.904Z,1.20
2022-12-24T00:25:56.200Z,1.10
2022-12-24T00:28:23.259Z,1.30
2022-12-24T00:30:50.385Z,1.38
2022-12-24T00:33:24.158Z,1.20
2022-12-24T00:35:53.368Z,1.10
2022-12-24T00:38:20.692Z,1.10
2022-12-24T00:40:47.576Z,1.17
2022-12-24T00:43:14.541Z,1.20
2022-12-24T00:45:41.515Z,1.38
2022-12-24T00:48:08.409Z,1.35
2022-12-24T00:50:35.340Z,1.30
2022-12-24T00:53:02.279Z,1.25
2022-12-24T00:55:29.159Z,1.10
2022-12-24T00:57:56.065Z,1.08
2022-12-24T01:00:23.158Z,1.23
2022-12-24T01:02:50.362Z,1.10
2022-12-24T01:05:20.719Z,1.40
2022-12-24T01:07:48.305Z,1.00
2022-12-24T01:10:19.129Z,1.17
2022-12-24T01:12:47.213Z,1.50
2022-12-24T01:15:17.036Z,1.40
2022-12-24T01:17:44.137Z,1.15
2022-12-24T01:20:16.843Z,1.30
2022-12-24T01:22:44.217Z,1.05
2022-12-24T01:25:11.567Z,1.60
2022-12-24T01:27:38.795Z,1.10
2022-12-24T01:30:08.063Z,1.10
2022-12-24T01:32:35.554Z,1.15
2022-12-24T01:35:02.520Z,1.05
2022-12-24T01:37:29.421Z,1.15
2022-12-24T01:40:16.253Z,1.23
2022-12-24T01:43:06.913Z,1.13
2022-12-24T01:45:58.621Z,1.20
2022-12-24T01:48:57.607Z,1.08
2022-12-24T01:51:33.882Z,1.17
2022-12-24T01:54:11.273Z,1.13
2022-12-24T01:56:46.691Z,1.10
2022-12-24T01:59:18.123Z,1.10
2022-12-24T02:01:49.115Z,1.20
2022-12-24T02:04:31.346Z,1.10
2022-12-24T02:06:58.335Z,1.33
2022-12-24T02:09:25.843Z,1.15
2022-12-24T02:11:53.245Z,1.10
2022-12-24T02:14:20.759Z,1.30
2022-12-24T02:17:08.159Z,1.20
2022-12-24T02:20:17.007Z,1.13
2022-12-24T02:23:26.585Z,1.17
2022-12-24T02:26:44.377Z,1.15
2022-12-24T02:29:35.243Z,1.10
2022-12-24T02:32:45.438Z,1.30
2022-12-24T02:35:38.399Z,1.05
2022-12-24T02:38:37.288Z,1.10
2022-12-24T02:41:24.647Z,1.13
2022-12-24T02:43:55.126Z,1.00
2022-12-24T02:46:27.990Z,1.40
2022-12-24T02:48:58.748Z,1.20
2022-12-24T02:51:25.873Z,1.10
2022-12-24T02:53:53.148Z,1.20
2022-12-24T02:56:41.779Z,1.10
2022-12-24T02:59:26.742Z,1.27
2022-12-24T03:02:24.236Z,1.17
2022-12-24T03:05:28.330Z,1.38
2022-12-24T03:08:13.411Z,1.27
2022-12-24T03:11:01.513Z,1.10
2022-12-24T03:13:29.975Z,1.10
2022-12-24T03:15:57.148Z,1.50
2022-12-24T03:18:27.881Z,1.20
2022-12-24T03:21:33.066Z,1.20
2022-12-24T03:24:00.400Z,1.23
2022-12-24T03:26:31.265Z,1.17
2022-12-24T03:28:58.411Z,1.02
2022-12-24T03:31:25.451Z,1.00
2022-12-24T03:33:52.671Z,0.88
2022-12-24T03:36:19.571Z,1.23
2022-12-24T03:38:46.460Z,1.10
2022-12-24T03:41:13.403Z,1.08
2022-12-24T03:43:40.271Z,1.20
2022-12-24T03:46:08.663Z,1.40
2022-12-24T03:48:35.912Z,1.25
2022-12-24T03:51:04.203Z,1.33
2022-12-24T03:53:31.404Z,1.35
2022-12-24T03:55:58.644Z,1.35
2022-12-24T03:58:25.547Z,1.10
2022-12-24T04:00:56.173Z,1.30
2022-12-24T04:03:23.161Z,1.13
2022-12-24T04:06:05.943Z,1.40
2022-12-24T04:08:33.425Z,1.15
2022-12-24T04:11:04.714Z,1.20
2022-12-24T04:13:34.793Z,1.48
2022-12-24T04:16:09.279Z,1.20
2022-12-24T04:18:38.128Z,1.13
2022-12-24T04:21:06.052Z,1.23
2022-12-24T04:23:35.173Z,1.23
2022-12-24T04:26:05.611Z,1.20
2022-12-24T04:28:34.166Z,1.27
2022-12-24T04:31:05.198Z,1.35
2022-12-24T04:33:32.327Z,1.10
2022-12-24T04:36:01.237Z,1.13
2022-12-24T04:38:29.430Z,1.40
2022-12-24T04:41:03.259Z,1.40
2022-12-24T04:43:31.080Z,1.23
2022-12-24T04:46:16.032Z,1.10
2022-12-24T04:48:42.979Z,1.30
2022-12-24T04:51:11.487Z,1.50
2022-12-24T04:53:39.822Z,1.02
2022-12-24T04:56:17.112Z,1.00
2022-12-24T04:58:44.644Z,1.40
2022-12-24T05:01:22.528Z,1.33
2022-12-24T05:03:51.025Z,1.20
2022-12-24T05:06:21.996Z,1.30
2022-12-24T05:08:49.368Z,1.30
2022-12-24T05:11:17.285Z,1.40
2022-12-24T05:13:47.599Z,1.38
2022-12-24T05:16:18.644Z,1.10
2022-12-24T05:18:46.278Z,1.13
2022-12-24T05:21:21.744Z,1.30
2022-12-24T05:24:08.060Z,1.20
2022-12-24T05:26:49.319Z,1.27
2022-12-24T05:29:17.178Z,1.42
2022-12-24T05:31:45.648Z,1.17
2022-12-24T05:34:15.260Z,1.20
2022-12-24T05:36:42.670Z,1.20
2022-12-24T05:39:16.561Z,1.40
2022-12-24T05:41:44.565Z,0.95
2022-12-24T05:44:11.550Z,1.00
2022-12-24T05:46:38.742Z,1.30
2022-12-24T05:49:06.115Z,1.33
2022-12-24T05:51:32.969Z,1.48
2022-12-24T05:53:59.938Z,1.20
2022-12-24T05:56:26.816Z,1.10
2022-12-24T05:58:54.748Z,1.20
2022-12-24T06:01:23.665Z,1.25
2022-12-24T06:03:51.961Z,1.40
2022-12-24T06:06:24.055Z,1.48
2022-12-24T06:08:53.320Z,1.20
2022-12-24T06:11:24.488Z,1.35
2022-12-24T06:13:53.302Z,1.00
2022-12-24T06:16:22.332Z,1.23
2022-12-24T06:18:49.862Z,0.95
2022-12-24T06:21:18.016Z,1.23
2022-12-24T06:23:46.061Z,1.10
2022-12-24T06:26:21.019Z,1.20
2022-12-24T06:28:50.210Z,1.20
2022-12-24T06:31:21.773Z,1.30
2022-12-24T06:33:49.030Z,1.00
2022-12-24T06:36:22.116Z,1.27
2022-12-24T06:38:50.242Z,1.42
2022-12-24T06:41:18.607Z,1.27
2022-12-24T06:43:48.321Z,1.25
2022-12-24T06:46:16.414Z,1.35
2022-12-24T06:48:45.512Z,1.23
2022-12-24T06:51:15.118Z,1.25
2022-12-24T06:53:42.345Z,1.25
2022-12-24T06:56:12.735Z,1.10
2022-12-24T06:58:41.092Z,1.08
2022-12-24T07:01:13.689Z,1.10
2022-12-24T07:03:41.974Z,1.25
2022-12-24T07:06:26.128Z,1.17
2022-12-24T07:08:53.721Z,1.08
2022-12-24T07:11:21.449Z,1.38
2022-12-24T07:13:48.380Z,1.52
2022-12-24T07:16:16.076Z,1.23
2022-12-24T07:18:43.167Z,1.50
2022-12-24T07:21:10.891Z,1.15
2022-12-24T07:23:38.074Z,1.00
2022-12-24T07:26:07.215Z,1.13
2022-12-24T07:28:34.661Z,1.38
2022-12-24T07:31:01.989Z,1.20
2022-12-24T07:33:29.826Z,1.20
2022-12-24T07:36:05.003Z,1.10
2022-12-24T07:38:33.485Z,1.15
2022-12-24T07:41:04.024Z,1.20
2022-12-24T07:43:34.048Z,1.30
2022-12-24T07:46:01.355Z,1.23
2022-12-24T07:48:31.312Z,1.30
2022-12-24T07:50:58.629Z,1.30
2022-12-24T07:53:28.009Z,1.00
2022-12-24T07:55:55.509Z,1.42
2022-12-24T07:58:23.523Z,1.52
2022-12-24T08:00:56.386Z,1.50
2022-12-24T08:03:23.704Z,1.00
2022-12-24T08:05:52.767Z,1.30
2022-12-24T08:08:20.492Z,1.00
2022-12-24T08:10:48.043Z,1.45
2022-12-24T08:13:17.731Z,1.40
2022-12-24T08:15:45.144Z,1.10
2022-12-24T08:18:12.537Z,1.10
2022-12-24T08:20:41.537Z,1.02
2022-12-24T08:23:09.508Z,1.05
2022-12-24T08:25:39.557Z,1.13
2022-12-24T08:28:06.542Z,1.17
2022-12-24T08:30:34.102Z,1.38
2022-12-24T08:33:01.604Z,1.20
2022-12-24T08:35:28.852Z,1.38
2022-12-24T08:37:56.063Z,1.33
2022-12-24T08:40:23.404Z,1.20
2022-12-24T08:42:50.568Z,1.25
2022-12-24T08:45:17.900Z,1.35
2022-12-24T08:47:44.863Z,1.00
2022-12-24T08:50:13.018Z,1.40
2022-12-24T08:52:42.554Z,1.20
2022-12-24T08:55:09.699Z,1.13
2022-12-24T08:57:37.721Z,1.55
2022-12-24T09:00:07.191Z,1.27
2022-12-24T09:02:34.283Z,1.35
2022-12-24T09:05:03.852Z,1.48
2022-12-24T09:07:31.071Z,1.05
2022-12-24T09:09:58.022Z,1.40
2022-12-24T09:12:24.883Z,1.50
2022-12-24T09:14:58.195Z,1.13
2022-12-24T09:17:30.233Z,1.40
2022-12-24T09:19:57.213Z,1.38
2022-12-24T09:22:24.167Z,1.20
2022-12-24T09:24:53.321Z,1.58
2022-12-24T09:27:20.480Z,1.17
2022-12-24T09:29:47.419Z,1.50
2022-12-24T09:32:14.673Z,1.70
2022-12-24T09:34:41.541Z,1.10
2022-12-24T09:37:08.583Z,1.20
2022-12-24T09:39:35.642Z,1.35
2022-12-24T09:42:34.826Z,1.38
2022-12-24T09:45:26.853Z,1.30
2022-12-24T09:48:02.059Z,1.45
2022-12-24T09:50:49.104Z,1.30
2022-12-24T09:53:50.407Z,1.40
2022-12-24T09:56:31.505Z,1.55
2022-12-24T09:59:05.775Z,1.20
2022-12-24T10:01:34.987Z,1.30
2022-12-24T10:04:18.231Z,1.33
2022-12-24T10:07:05.866Z,1.33
2022-12-24T10:09:56.720Z,1.25
2022-12-24T10:13:26.037Z,1.40
2022-12-24T10:16:38.485Z,1.35
2022-12-24T10:20:00.304Z,1.40
2022-12-24T10:22:48.989Z,1.70
2022-12-24T10:25:26.031Z,1.60
2022-12-24T10:27:58.229Z,1.65
2022-12-24T10:30:25.510Z,1.60
2022-12-24T10:32:55.355Z,1.60
2022-12-24T10:35:36.736Z,1.90
2022-12-24T10:38:04.436Z,1.40
2022-12-24T10:40:50.123Z,2.20
2022-12-24T10:43:23.637Z,1.98
2022-12-24T10:46:14.070Z,2.17
2022-12-24T10:48:52.032Z,3.10
2022-12-24T10:51:38.615Z,2.10
2022-12-24T10:54:20.901Z,1.90
2022-12-24T10:57:01.201Z,1.95
2022-12-24T10:59:39.171Z,2.20
2022-12-24T11:02:28.529Z,1.80
2022-12-24T11:04:56.063Z,1.90
2022-12-24T11:07:23.954Z,1.88
2022-12-24T11:10:03.607Z,2.55
2022-12-24T11:12:40.652Z,1.90
2022-12-24T11:15:39.148Z,1.50
2022-12-24T11:18:16.056Z,1.83
2022-12-24T11:20:52.245Z,1.85
2022-12-24T11:23:19.790Z,2.35
2022-12-24T11:25:54.907Z,1.90
2022-12-24T11:28:29.090Z,1.70
2022-12-24T11:31:21.250Z,1.77
2022-12-24T11:33:52.882Z,2.08
2022-12-24T11:36:26.712Z,2.00
2022-12-24T11:38:58.958Z,1.90
2022-12-24T11:41:27.091Z,1.67
2022-12-24T11:44:03.895Z,2.08
2022-12-24T11:46:46.425Z,1.50
2022-12-24T11:49:18.112Z,1.73
2022-12-24T11:52:09.981Z,2.00
2022-12-24T11:55:15.446Z,2.13
2022-12-24T11:57:56.058Z,2.00
2022-12-24T12:00:23.041Z,2.22
2022-12-24T12:02:52.634Z,2.00
2022-12-24T12:05:27.100Z,2.00
2022-12-24T12:08:21.223Z,1.90
2022-12-24T12:10:52.461Z,2.03
2022-12-24T12:13:33.029Z,1.75
2022-12-24T12:17:00.677Z,1.67
2022-12-24T12:19:46.000Z,1.80
2022-12-24T12:22:45.627Z,1.95
2022-12-24T12:25:42.510Z,2.05
2022-12-24T12:28:29.185Z,1.98
2022-12-24T12:31:20.698Z,2.00
2022-12-24T12:33:57.853Z,1.85
2022-12-24T12:36:39.600Z,1.30
2022-12-24T12:39:08.635Z,1.90
2022-12-24T12:42:09.212Z,1.63
2022-12-24T12:45:06.158Z,1.88
2022-12-24T12:48:10.204Z,1.70
2022-12-24T12:50:56.027Z,1.45
2022-12-24T12:53:53.356Z,1.60
2022-12-24T12:56:37.646Z,1.67
2022-12-24T12:59:19.218Z,1.65
2022-12-24T13:02:00.084Z,1.80
2022-12-24T13:04:57.985Z,1.60
2022-12-24T13:07:53.987Z,1.60
2022-12-24T13:11:09.965Z,1.63
2022-12-24T13:14:00.386Z,1.50
2022-12-24T13:16:45.295Z,1.60
2022-12-24T13:19:44.800Z,1.80
2022-12-24T13:22:18.402Z,1.58
2022-12-24T13:24:56.713Z,1.50
2022-12-24T13:27:34.454Z,1.80
2022-12-24T13:30:41.183Z,1.63
2022-12-24T13:33:34.443Z,1.70
2022-12-24T13:36:08.054Z,1.52
2022-12-24T13:38:44.925Z,1.90
2022-12-24T13:41:40.490Z,1.83
2022-12-24T13:44:13.961Z,1.48
2022-12-24T13:47:31.676Z,1.38
2022-12-24T13:50:25.792Z,1.30
2022-12-24T13:52:54.510Z,1.45
2022-12-24T13:55:22.316Z,1.58
2022-12-24T13:57:57.917Z,1.60
2022-12-24T14:00:51.977Z,1.73
2022-12-24T14:03:41.214Z,1.70
2022-12-24T14:06:22.081Z,1.50
2022-12-24T14:08:53.734Z,1.60
2022-12-24T14:11:24.626Z,1.83
2022-12-24T14:14:06.471Z,1.25
2022-12-24T14:16:48.002Z,1.85
2022-12-24T14:19:26.088Z,1.55
2022-12-24T14:22:32.997Z,1.55
2022-12-24T14:25:16.467Z,1.63
2022-12-24T14:27:54.807Z,1.50
2022-12-24T14:30:29.037Z,1.55
2022-12-24T14:32:59.017Z,1.73
2022-12-24T14:35:30.743Z,1.45
2022-12-24T14:38:15.195Z,1.60
2022-12-24T14:41:34.322Z,1.80
2022-12-24T14:44:14.089Z,1.48
2022-12-24T14:46:49.345Z,1.55
2022-12-24T14:49:47.773Z,1.50
2022-12-24T14:53:04.700Z,1.48
2022-12-24T14:55:45.921Z,1.30
2022-12-24T14:58:36.088Z,1.48
2022-12-24T15:01:26.336Z,1.50
2022-12-24T15:04:10.020Z,1.30
2022-12-24T15:06:47.953Z,1.67
2022-12-24T15:09:24.156Z,1.40
2022-12-24T15:12:03.503Z,1.58
2022-12-24T15:14:41.428Z,1.15
2022-12-24T15:17:13.120Z,1.20
2022-12-24T15:19:44.695Z,1.58
2022-12-24T15:22:29.657Z,1.70
2022-12-24T15:24:57.030Z,1.35
2022-12-24T15:27:27.851Z,1.30
2022-12-24T15:29:58.270Z,1.58
2022-12-24T15:32:25.471Z,1.58
2022-12-24T15:34:56.330Z,1.40
2022-12-24T15:37:31.375Z,1.50
2022-12-24T15:40:24.536Z,1.55
2022-12-24T15:42:52.655Z,1.27
2022-12-24T15:45:40.356Z,1.33
2022-12-24T15:48:11.726Z,1.30
2022-12-24T15:50:48.720Z,1.63
2022-12-24T15:53:25.991Z,1.55
2022-12-24T15:56:39.413Z,1.67
2022-12-24T15:59:17.904Z,1.55
2022-12-24T16:01:47.718Z,1.73
2022-12-24T16:04:22.606Z,1.38
2022-12-24T16:06:58.246Z,1.20
2022-12-24T16:09:47.956Z,1.38
2022-12-24T16:12:25.502Z,1.50
2022-12-24T16:15:01.018Z,1.55
2022-12-24T16:17:34.158Z,1.50
2022-12-24T16:20:07.635Z,1.42
2022-12-24T16:22:39.725Z,1.40
2022-12-24T16:25:28.677Z,1.25
2022-12-24T16:27:59.973Z,1.38
2022-12-24T16:30:27.736Z,1.33
2022-12-24T16:32:54.765Z,1.42
2022-12-24T16:35:36.466Z,1.30
2022-12-24T16:38:04.251Z,1.38
2022-12-24T16:40:31.256Z,1.63
2022-12-24T16:43:17.445Z,1.60
2022-12-24T16:45:46.994Z,1.60
2022-12-24T16:48:25.719Z,1.58
2022-12-24T16:50:53.937Z,1.40
2022-12-24T16:53:23.287Z,1.00
2022-12-24T16:55:51.517Z,1.85
2022-12-24T16:58:20.155Z,1.65
2022-12-24T17:00:47.728Z,1.48
2022-12-24T17:03:15.206Z,1.83
2022-12-24T17:05:44.384Z,1.58
2022-12-24T17:08:12.123Z,1.70
2022-12-24T17:10:40.135Z,1.98
2022-12-24T17:13:07.321Z,2.00
2022-12-24T17:15:34.646Z,1.90
2022-12-24T17:18:01.569Z,1.80
2022-12-24T17:20:28.587Z,1.85
2022-12-24T17:22:55.551Z,2.13
2022-12-24T17:25:23.317Z,2.17
2022-12-24T17:27:50.422Z,2.25
2022-12-24T17:30:17.608Z,1.88
2022-12-24T17:32:44.557Z,1.58
2022-12-24T17:35:11.751Z,1.73
2022-12-24T17:37:38.731Z,2.08
2022-12-24T17:40:06.799Z,1.90
2022-12-24T17:42:33.703Z,1.80
2022-12-24T17:45:01.114Z,1.80
2022-12-24T17:47:28.042Z,1.70
2022-12-24T17:49:54.954Z,1.80
2022-12-24T17:52:21.937Z,1.85
2022-12-24T17:54:48.835Z,1.70
2022-12-24T17:57:15.824Z,1.85
2022-12-24T17:59:42.678Z,1.63
2022-12-24T18:02:12.832Z,1.83
2022-12-24T18:04:39.875Z,1.80
2022-12-24T18:07:06.924Z,1.70
2022-12-24T18:09:33.942Z,1.98
2022-12-24T18:12:01.142Z,1.80
2022-12-24T18:14:28.741Z,1.85
2022-12-24T18:16:55.687Z,1.80
2022-12-24T18:19:22.738Z,1.88
2022-12-24T18:21:49.708Z,1.80
2022-12-24T18:24:16.630Z,1.95
2022-12-24T18:26:45.875Z,2.00
2022-12-24T18:29:13.319Z,1.60
2022-12-24T18:31:40.834Z,2.05
2022-12-24T18:34:13.112Z,1.63
2022-12-24T18:36:40.179Z,2.10
2022-12-24T18:39:07.147Z,1.90
2022-12-24T18:41:35.344Z,2.00
2022-12-24T18:44:02.565Z,2.00
2022-12-24T18:46:33.122Z,2.00
2022-12-24T18:49:01.675Z,2.38
2022-12-24T18:51:33.062Z,1.85
2022-12-24T18:54:00.265Z,1.85
2022-12-24T18:56:27.673Z,1.98
2022-12-24T18:58:58.017Z,1.88
2022-12-24T19:01:29.509Z,2.00
2022-12-24T19:03:57.150Z,2.00
2022-12-24T19:06:24.798Z,1.90
2022-12-24T19:09:01.274Z,2.20
2022-12-24T19:11:34.129Z,2.08
2022-12-24T19:14:03.035Z,1.95
2022-12-24T19:16:34.721Z,2.20
2022-12-24T19:19:04.430Z,1.80
2022-12-24T19:21:32.112Z,1.83
2022-12-24T19:23:59.441Z,1.90
2022-12-24T19:26:26.499Z,2.10
2022-12-24T19:28:55.179Z,2.25
2022-12-24T19:31:28.484Z,2.22
2022-12-24T19:33:57.151Z,2.08
2022-12-24T19:36:29.048Z,2.00
2022-12-24T19:39:00.506Z,2.20
2022-12-24T19:41:29.965Z,2.10
2022-12-24T19:44:01.120Z,1.90
2022-12-24T19:46:32.550Z,1.58
2022-12-24T19:49:05.212Z,1.80
2022-12-24T19:51:34.408Z,2.08
2022-12-24T19:54:02.057Z,1.92
2022-12-24T19:56:31.873Z,2.33
2022-12-24T19:59:00.421Z,1.70
2022-12-24T20:01:31.252Z,2.13
2022-12-24T20:03:58.870Z,2.42
2022-12-24T20:06:31.418Z,2.10
2022-12-24T20:09:05.696Z,1.90
2022-12-24T20:11:33.719Z,2.10
2022-12-24T20:14:03.692Z,2.00
2022-12-24T20:16:31.435Z,2.33
2022-12-24T20:19:03.518Z,1.88
2022-12-24T20:21:32.141Z,2.00
2022-12-24T20:23:59.189Z,1.90
2022-12-24T20:26:29.961Z,2.33
2022-12-24T20:28:57.381Z,1.98
2022-12-24T20:31:28.593Z,1.90
2022-12-24T20:33:57.139Z,2.15
2022-12-24T20:36:26.169Z,2.00
2022-12-24T20:38:53.819Z,1.92
2022-12-24T20:41:23.854Z,2.03
2022-12-24T20:43:51.523Z,1.90
2022-12-24T20:46:21.808Z,2.00
2022-12-24T20:48:49.903Z,2.15
2022-12-24T20:51:25.331Z,2.13
2022-12-24T20:53:55.492Z,2.25
2022-12-24T20:56:23.246Z,2.22
2022-12-24T20:58:50.467Z,2.20
2022-12-24T21:01:25.095Z,2.15
2022-12-24T21:03:54.280Z,2.10
2022-12-24T21:06:22.367Z,1.85
2022-12-24T21:08:51.671Z,2.08
2022-12-24T21:11:38.042Z,1.80
2022-12-24T21:14:05.493Z,1.92
2022-12-24T21:16:34.772Z,1.95
2022-12-24T21:19:02.515Z,1.92
2022-12-24T21:21:30.485Z,1.90
2022-12-24T21:23:58.321Z,1.88
2022-12-24T21:26:25.200Z,1.98
2022-12-24T21:28:53.127Z,1.77
2022-12-24T21:31:20.938Z,1.90
2022-12-24T21:33:47.950Z,2.13
2022-12-24T21:36:16.420Z,2.00
2022-12-24T21:38:43.665Z,2.10
2022-12-24T21:41:13.979Z,1.73
2022-12-24T21:43:41.411Z,1.83
2022-12-24T21:46:17.443Z,1.73
2022-12-24T21:49:03.732Z,2.10
2022-12-24T21:51:31.764Z,1.70
2022-12-24T21:54:17.460Z,2.28
2022-12-24T21:57:03.014Z,1.85
2022-12-24T21:59:30.218Z,1.80
2022-12-24T22:01:58.634Z,1.80
2022-12-24T22:04:26.400Z,1.67
2022-12-24T22:07:12.194Z,1.75
2022-12-24T22:09:57.764Z,1.65
2022-12-24T22:12:28.843Z,1.75
2022-12-24T22:14:55.817Z,1.67
2022-12-24T22:17:25.394Z,1.70
2022-12-24T22:19:56.331Z,1.83
2022-12-24T22:22:24.191Z,1.80
2022-12-24T22:24:51.293Z,1.80
2022-12-24T22:27:18.329Z,1.83
2022-12-24T22:29:45.412Z,1.77
2022-12-24T22:32:12.463Z,1.52
2022-12-24T22:34:39.600Z,1.55
2022-12-24T22:37:06.693Z,2.15
2022-12-24T22:39:33.782Z,1.70
2022-12-24T22:42:00.933Z,1.67
2022-12-24T22:44:28.100Z,1.65
2022-12-24T22:46:55.195Z,1.80
2022-12-24T22:49:22.246Z,2.15
2022-12-24T22:51:51.491Z,2.08
2022-12-24T22:54:18.551Z,1.90
2022-12-24T22:56:45.563Z,1.90
2022-12-24T22:59:14.135Z,1.90
2022-12-24T23:01:45.771Z,1.95
2022-12-24T23:04:14.646Z,1.98
2022-12-24T23:06:42.280Z,1.92
2022-12-24T23:09:12.950Z,2.25
2022-12-24T23:11:44.766Z,2.03
2022-12-24T23:14:39.550Z,1.98
2022-12-24T23:17:07.869Z,1.70
2022-12-24T23:19:36.367Z,1.90
2022-12-24T23:22:05.385Z,1.98
2022-12-24T23:24:34.806Z,1.95
2022-12-24T23:27:02.275Z,1.80
2022-12-24T23:29:31.335Z,1.73
2022-12-24T23:31:58.801Z,1.80
2022-12-24T23:34:26.290Z,2.33
2022-12-24T23:36:53.311Z,2.08
2022-12-24T23:39:20.170Z,1.65
2022-12-24T23:41:47.264Z,1.75
2022-12-24T23:44:14.397Z,1.45
2022-12-24T23:46:41.468Z,1.70
2022-12-24T23:49:13.313Z,1.70
2022-12-24T23:51:40.381Z,1.60
2022-12-24T23:54:07.318Z,1.52
2022-12-24T23:56:34.336Z,1.58
2022-12-24T23:59:03.813Z,1.63
